Terminal Aerodrome Forecast
Issued by NWS Portland, ME

Home | Current Version | Previous Version | Text Only | Print | Product List | Glossary On
Versions: 1 2 3 4 5 6 7 8 9 10 11 12 13 14 15 16 17 18 19 20 21
000
FTUS41 KGYX 040845 AAA
TAFPWM
TAF AMD
KPWM 040845Z 0409/0506 00000KT P6SM SKC
     FM041400 21010G18KT P6SM FEW250
     FM050400 22009KT P6SM OVC100=

USA.gov is the U.S. government's official web portal to all federal, state and local government web resources and services.